Flight Track Log - Related Links

Times and Time Zones

All times are in EDT time to prevent confusion due to time zone crossing. See the N606FT flight status page for this flight to view local times or setup timezone preferences in your user account.

Time Position Orientation Groundspeed Altitude Reporting Facility
EDT Latitude Longitude Course Direction KTS MPH feet Rate Location/Type
Wed 06:28:08 PM 27.9000 -82.3500 67° East 109 125 1,500  Level Tampa TRACON
Wed 06:29:08 PM 27.9167 -82.3167 60° Northeast 105 121 2,000 381 Climbing Tampa TRACON
Wed 06:30:14 PM 27.9167 -82.2833 90° East 109 125 2,300 -95 Climbing Tampa TRACON
Wed 06:31:14 PM 27.9333 -82.2500 60° Northeast 130 150 1,800 -400 Descending Tampa TRACON
Wed 06:32:14 PM 27.9667 -82.2167 41° Northeast 117 135 1,500 -100 Descending Tampa TRACON
Wed 06:33:00 PM 28.0118 -82.1913 67° East  Level Estimated
Wed 06:33:14 PM 27.9667 -82.1833 90° East 99 114 1,600  Level Tampa TRACON
Wed 06:34:08 PM 27.9833 -82.1667 41° Northeast 104 120 1,500 -53 Descending Tampa TRACON
Wed 06:35:08 PM 28.0000 -82.1333 60° Northeast 103 119 1,500  Level Tampa TRACON
Wed 06:36:08 PM 28.0167 -82.1000 60° Northeast 112 129 1,500  Level Tampa TRACON
Wed 06:37:08 PM 28.0333 -82.0667 60° Northeast 113 130 1,500  Level Tampa TRACON
Wed 06:38:08 PM 28.0333 -82.0333 90° East 119 137 1,500  Level Tampa TRACON
Wed 06:39:08 PM 28.0500 -82.0000 60° Northeast 111 128 1,500  Level Tampa TRACON
Wed 06:40:02 PM 28.0667 -81.9833 41° Northeast 109 125 1,500  Level Tampa TRACON
Wed 06:41:02 PM 28.0833 -81.9500 60° Northeast 111 128 1,500  Level Tampa TRACON
Wed 06:42:02 PM 28.1167 -81.9167 41° Northeast 109 125 1,500  Level Tampa TRACON
Wed 06:43:02 PM 28.1167 -81.8833 90° East 121 139 1,500  Level Tampa TRACON
Wed 06:44:02 PM 28.1333 -81.8500 60° Northeast 115 132 1,500 -66 Level Tampa TRACON
Wed 06:44:33 PM 28.1333 -81.8333 90° East 108 124 1,400  Descending Orlando TRACON
Wed 06:45:10 PM 28.1333 -81.8167 90° East 115 132 1,500  Climbing Orlando TRACON
Wed 06:46:16 PM 28.1333 -81.7667 90° East 125 144 1,400 -48 Descending Orlando TRACON
Wed 06:47:16 PM 28.1333 -81.7333 90° East 120 138 1,400  Level Orlando TRACON
Wed 06:48:16 PM 28.1333 -81.7000 90° East 116 133 1,400  Level Orlando TRACON
Wed 06:49:16 PM 28.1333 -81.6667 90° East 118 136 1,400  Level Orlando TRACON
Wed 06:50:16 PM 28.1500 -81.6333 60° Northeast 117 135 1,400  Level Orlando TRACON
Wed 06:51:16 PM 28.1667 -81.6000 60° Northeast 115 132 1,400  Level Orlando TRACON
Wed 06:52:10 PM 28.1833 -81.5833 41° Northeast 115 132 1,400 -53 Level Orlando TRACON
Wed 06:53:10 PM 28.2000 -81.5500 60° Northeast 116 133 1,300 -48 Descending Orlando TRACON
Wed 06:54:16 PM 28.2167 -81.5167 60° Northeast 110 127 1,300 50 Level Orlando TRACON
Wed 06:55:10 PM 28.2333 -81.4833 60° Northeast 107 123 1,400 -263 Climbing Orlando TRACON
Wed 06:56:10 PM 28.2500 -81.4500 60° Northeast 118 136 800 -429 Descending Orlando TRACON
Wed 06:57:16 PM 28.2667 -81.4333 41° Northeast 101 116 500 -111 Descending Orlando TRACON
Wed 06:58:52 PM 28.3000 -81.4333 360° North 65 75 500 150 Level Orlando TRACON
Wed 06:59:16 PM 28.3000 -81.4333 270° West 90 104 800 200 Climbing Orlando TRACON
Wed 07:00:22 PM 28.2833 -81.4167 139° Southeast 108 124 800  Level Orlando TRACON

Login

Don't have an account? Register now (free) for customized features, flight alerts, and more!